sensor_id;sensor_type;location;lat;lon;timestamp;temperature;humidity
76967;DHT22;65904;52.278;20.972;2023-08-08T00:03:05;23.30;99.90
76967;DHT22;65904;52.278;20.972;2023-08-08T00:05:53;23.30;99.90
76967;DHT22;65904;52.278;20.972;2023-08-08T00:08:41;23.30;99.90
76967;DHT22;65904;52.278;20.972;2023-08-08T00:11:26;23.30;99.90
76967;DHT22;65904;52.278;20.972;2023-08-08T00:14:13;23.30;99.90
76967;DHT22;65904;52.278;20.972;2023-08-08T00:16:58;23.30;99.90
76967;DHT22;65904;52.278;20.972;2023-08-08T00:19:44;23.30;99.90
76967;DHT22;65904;52.278;20.972;2023-08-08T00:22:30;23.20;99.90
76967;DHT22;65904;52.278;20.972;2023-08-08T00:25:17;23.30;99.90
76967;DHT22;65904;52.278;20.972;2023-08-08T00:28:03;23.30;99.90
76967;DHT22;65904;52.278;20.972;2023-08-08T00:30:49;23.20;99.90
76967;DHT22;65904;52.278;20.972;2023-08-08T00:33:35;23.20;99.90
76967;DHT22;65904;52.278;20.972;2023-08-08T00:36:21;23.20;99.90
76967;DHT22;65904;52.278;20.972;2023-08-08T00:39:07;23.20;99.90
76967;DHT22;65904;52.278;20.972;2023-08-08T00:41:56;23.20;99.90
76967;DHT22;65904;52.278;20.972;2023-08-08T00:44:42;23.20;99.90
76967;DHT22;65904;52.278;20.972;2023-08-08T00:47:28;23.20;99.90
76967;DHT22;65904;52.278;20.972;2023-08-08T00:50:14;23.20;99.90
76967;DHT22;65904;52.278;20.972;2023-08-08T00:53:00;23.20;99.90
76967;DHT22;65904;52.278;20.972;2023-08-08T00:55:46;23.20;99.90
76967;DHT22;65904;52.278;20.972;2023-08-08T00:58:34;23.20;99.90
76967;DHT22;65904;52.278;20.972;2023-08-08T01:01:20;23.20;99.90
76967;DHT22;65904;52.278;20.972;2023-08-08T01:04:07;23.20;99.90
76967;DHT22;65904;52.278;20.972;2023-08-08T01:06:55;23.20;99.90
76967;DHT22;65904;52.278;20.972;2023-08-08T01:09:44;23.20;99.90
76967;DHT22;65904;52.278;20.972;2023-08-08T01:12:31;23.20;99.90
76967;DHT22;65904;52.278;20.972;2023-08-08T01:15:18;23.20;99.90
76967;DHT22;65904;52.278;20.972;2023-08-08T01:18:05;23.10;99.90
76967;DHT22;65904;52.278;20.972;2023-08-08T01:20:51;23.10;99.90
76967;DHT22;65904;52.278;20.972;2023-08-08T01:23:41;23.10;99.90
76967;DHT22;65904;52.278;20.972;2023-08-08T01:26:29;23.10;99.90
76967;DHT22;65904;52.278;20.972;2023-08-08T01:29:16;23.10;99.90
76967;DHT22;65904;52.278;20.972;2023-08-08T01:32:03;23.10;99.90
76967;DHT22;65904;52.278;20.972;2023-08-08T01:34:49;23.10;99.90
76967;DHT22;65904;52.278;20.972;2023-08-08T01:37:36;23.10;99.90
76967;DHT22;65904;52.278;20.972;2023-08-08T01:40:23;23.10;99.90
76967;DHT22;65904;52.278;20.972;2023-08-08T01:43:12;23.10;99.90
76967;DHT22;65904;52.278;20.972;2023-08-08T01:45:59;23.10;99.90
76967;DHT22;65904;52.278;20.972;2023-08-08T01:48:46;23.10;99.90
76967;DHT22;65904;52.278;20.972;2023-08-08T01:51:32;23.10;99.90
76967;DHT22;65904;52.278;20.972;2023-08-08T01:54:19;23.10;99.90
76967;DHT22;65904;52.278;20.972;2023-08-08T01:57:05;23.10;99.90
76967;DHT22;65904;52.278;20.972;2023-08-08T01:59:52;23.00;99.90
76967;DHT22;65904;52.278;20.972;2023-08-08T02:02:38;23.00;99.90
76967;DHT22;65904;52.278;20.972;2023-08-08T02:05:26;23.00;99.90
76967;DHT22;65904;52.278;20.972;2023-08-08T02:08:11;23.00;99.90
76967;DHT22;65904;52.278;20.972;2023-08-08T02:10:58;23.00;99.90
76967;DHT22;65904;52.278;20.972;2023-08-08T02:13:43;23.00;99.90
76967;DHT22;65904;52.278;20.972;2023-08-08T02:16:31;23.00;99.90
76967;DHT22;65904;52.278;20.972;2023-08-08T02:19:17;23.00;99.90
76967;DHT22;65904;52.278;20.972;2023-08-08T02:22:04;23.00;99.90
76967;DHT22;65904;52.278;20.972;2023-08-08T02:24:49;23.00;99.90
76967;DHT22;65904;52.278;20.972;2023-08-08T02:27:36;23.00;99.90
76967;DHT22;65904;52.278;20.972;2023-08-08T02:30:22;23.00;99.90
76967;DHT22;65904;52.278;20.972;2023-08-08T02:33:10;23.00;99.90
76967;DHT22;65904;52.278;20.972;2023-08-08T02:35:56;22.90;99.90
76967;DHT22;65904;52.278;20.972;2023-08-08T02:38:42;22.90;99.90
76967;DHT22;65904;52.278;20.972;2023-08-08T02:41:28;22.90;99.90
76967;DHT22;65904;52.278;20.972;2023-08-08T02:44:15;22.90;99.90
76967;DHT22;65904;52.278;20.972;2023-08-08T02:47:01;22.90;99.90
76967;DHT22;65904;52.278;20.972;2023-08-08T02:49:49;22.90;99.90
76967;DHT22;65904;52.278;20.972;2023-08-08T02:52:34;22.90;99.90
76967;DHT22;65904;52.278;20.972;2023-08-08T02:55:20;22.90;99.90
76967;DHT22;65904;52.278;20.972;2023-08-08T02:58:09;22.90;99.90
76967;DHT22;65904;52.278;20.972;2023-08-08T03:00:55;22.80;99.90
76967;DHT22;65904;52.278;20.972;2023-08-08T03:03:41;22.80;99.90
76967;DHT22;65904;52.278;20.972;2023-08-08T03:06:29;22.80;99.90
76967;DHT22;65904;52.278;20.972;2023-08-08T03:09:15;22.80;99.90
76967;DHT22;65904;52.278;20.972;2023-08-08T03:12:02;22.80;99.90
76967;DHT22;65904;52.278;20.972;2023-08-08T03:14:49;22.80;99.90
76967;DHT22;65904;52.278;20.972;2023-08-08T03:17:35;22.80;99.90
76967;DHT22;65904;52.278;20.972;2023-08-08T03:20:21;22.80;99.90
76967;DHT22;65904;52.278;20.972;2023-08-08T03:23:09;22.80;99.90
76967;DHT22;65904;52.278;20.972;2023-08-08T03:25:57;22.80;99.90
76967;DHT22;65904;52.278;20.972;2023-08-08T03:28:44;22.80;99.90
76967;DHT22;65904;52.278;20.972;2023-08-08T03:31:36;22.80;99.90
76967;DHT22;65904;52.278;20.972;2023-08-08T03:34:23;22.80;99.90
76967;DHT22;65904;52.278;20.972;2023-08-08T03:37:09;22.80;99.90
76967;DHT22;65904;52.278;20.972;2023-08-08T03:39:58;22.80;99.90
76967;DHT22;65904;52.278;20.972;2023-08-08T03:42:43;22.80;99.90
76967;DHT22;65904;52.278;20.972;2023-08-08T03:45:30;22.80;99.90
76967;DHT22;65904;52.278;20.972;2023-08-08T03:48:16;22.80;99.90
76967;DHT22;65904;52.278;20.972;2023-08-08T03:51:02;22.80;99.90
76967;DHT22;65904;52.278;20.972;2023-08-08T03:53:48;22.80;99.90
76967;DHT22;65904;52.278;20.972;2023-08-08T03:56:35;22.90;99.90
76967;DHT22;65904;52.278;20.972;2023-08-08T03:59:22;22.60;99.90
76967;DHT22;65904;52.278;20.972;2023-08-08T04:02:08;21.90;99.90
76967;DHT22;65904;52.278;20.972;2023-08-08T04:04:54;22.30;99.90
76967;DHT22;65904;52.278;20.972;2023-08-08T04:07:40;22.60;99.90
76967;DHT22;65904;52.278;20.972;2023-08-08T04:10:26;22.80;99.90
76967;DHT22;65904;52.278;20.972;2023-08-08T04:13:14;22.10;99.90
76967;DHT22;65904;52.278;20.972;2023-08-08T04:16:00;20.20;99.90
76967;DHT22;65904;52.278;20.972;2023-08-08T04:18:46;21.00;99.90
76967;DHT22;65904;52.278;20.972;2023-08-08T04:21:31;21.70;99.90
76967;DHT22;65904;52.278;20.972;2023-08-08T04:24:18;22.20;99.90
76967;DHT22;65904;52.278;20.972;2023-08-08T04:27:04;22.40;99.90
76967;DHT22;65904;52.278;20.972;2023-08-08T04:29:51;22.70;99.90
76967;DHT22;65904;52.278;20.972;2023-08-08T04:32:37;22.80;99.90
76967;DHT22;65904;52.278;20.972;2023-08-08T04:35:23;23.00;99.90
76967;DHT22;65904;52.278;20.972;2023-08-08T04:38:09;23.10;99.90
76967;DHT22;65904;52.278;20.972;2023-08-08T04:40:55;23.10;99.90
76967;DHT22;65904;52.278;20.972;2023-08-08T04:43:41;23.20;99.90
76967;DHT22;65904;52.278;20.972;2023-08-08T04:46:29;23.30;99.90
76967;DHT22;65904;52.278;20.972;2023-08-08T04:49:14;23.30;99.90
76967;DHT22;65904;52.278;20.972;2023-08-08T04:52:01;21.90;99.90
76967;DHT22;65904;52.278;20.972;2023-08-08T04:54:46;20.60;99.90
76967;DHT22;65904;52.278;20.972;2023-08-08T04:57:33;21.40;99.90
76967;DHT22;65904;52.278;20.972;2023-08-08T05:00:18;22.00;99.90
76967;DHT22;65904;52.278;20.972;2023-08-08T05:03:06;22.40;99.90
76967;DHT22;65904;52.278;20.972;2023-08-08T05:05:52;22.70;99.90
76967;DHT22;65904;52.278;20.972;2023-08-08T05:08:38;22.80;99.90
76967;DHT22;65904;52.278;20.972;2023-08-08T05:11:24;22.90;99.90
76967;DHT22;65904;52.278;20.972;2023-08-08T05:14:11;23.00;99.90
76967;DHT22;65904;52.278;20.972;2023-08-08T05:16:56;23.10;99.90
76967;DHT22;65904;52.278;20.972;2023-08-08T05:19:44;23.10;99.90
76967;DHT22;65904;52.278;20.972;2023-08-08T05:22:30;23.10;99.90
76967;DHT22;65904;52.278;20.972;2023-08-08T05:25:16;23.20;99.90
76967;DHT22;65904;52.278;20.972;2023-08-08T05:28:02;23.20;99.90
76967;DHT22;65904;52.278;20.972;2023-08-08T05:30:48;23.30;99.90
76967;DHT22;65904;52.278;20.972;2023-08-08T05:33:34;23.30;99.90
76967;DHT22;65904;52.278;20.972;2023-08-08T05:36:21;23.40;99.90
76967;DHT22;65904;52.278;20.972;2023-08-08T05:39:08;23.40;99.90
76967;DHT22;65904;52.278;20.972;2023-08-08T05:41:54;23.40;99.90
76967;DHT22;65904;52.278;20.972;2023-08-08T05:44:40;23.40;99.90
76967;DHT22;65904;52.278;20.972;2023-08-08T05:47:27;23.40;99.90
76967;DHT22;65904;52.278;20.972;2023-08-08T05:50:12;23.50;99.90
76967;DHT22;65904;52.278;20.972;2023-08-08T05:53:00;23.50;99.90
76967;DHT22;65904;52.278;20.972;2023-08-08T05:55:46;23.50;99.90
76967;DHT22;65904;52.278;20.972;2023-08-08T05:58:32;23.50;99.90
76967;DHT22;65904;52.278;20.972;2023-08-08T06:01:18;23.50;99.90
76967;DHT22;65904;52.278;20.972;2023-08-08T06:04:04;23.50;99.90
76967;DHT22;65904;52.278;20.972;2023-08-08T06:06:50;23.50;99.90
76967;DHT22;65904;52.278;20.972;2023-08-08T06:09:37;23.50;99.90
76967;DHT22;65904;52.278;20.972;2023-08-08T06:12:23;23.50;99.90
76967;DHT22;65904;52.278;20.972;2023-08-08T06:15:09;23.60;99.90
76967;DHT22;65904;52.278;20.972;2023-08-08T06:17:56;23.60;99.90
76967;DHT22;65904;52.278;20.972;2023-08-08T06:20:42;23.60;99.90
76967;DHT22;65904;52.278;20.972;2023-08-08T06:23:28;23.70;99.90
76967;DHT22;65904;52.278;20.972;2023-08-08T06:26:16;23.70;99.90
76967;DHT22;65904;52.278;20.972;2023-08-08T06:29:02;23.70;99.90
76967;DHT22;65904;52.278;20.972;2023-08-08T06:31:48;23.70;99.90
76967;DHT22;65904;52.278;20.972;2023-08-08T06:34:34;23.70;99.90
76967;DHT22;65904;52.278;20.972;2023-08-08T06:37:20;23.70;99.90
76967;DHT22;65904;52.278;20.972;2023-08-08T06:40:07;23.70;99.90
76967;DHT22;65904;52.278;20.972;2023-08-08T06:42:55;23.70;99.90
76967;DHT22;65904;52.278;20.972;2023-08-08T06:45:41;23.70;99.90
76967;DHT22;65904;52.278;20.972;2023-08-08T06:48:28;23.80;99.90
76967;DHT22;65904;52.278;20.972;2023-08-08T06:51:13;23.80;99.90
76967;DHT22;65904;52.278;20.972;2023-08-08T06:53:59;23.80;99.90
76967;DHT22;65904;52.278;20.972;2023-08-08T06:56:45;23.80;99.90
76967;DHT22;65904;52.278;20.972;2023-08-08T06:59:32;23.80;99.90
76967;DHT22;65904;52.278;20.972;2023-08-08T07:02:18;23.90;99.90
76967;DHT22;65904;52.278;20.972;2023-08-08T07:05:05;24.00;99.90
76967;DHT22;65904;52.278;20.972;2023-08-08T07:07:52;24.00;99.90
76967;DHT22;65904;52.278;20.972;2023-08-08T07:10:38;24.00;99.90
76967;DHT22;65904;52.278;20.972;2023-08-08T07:13:24;24.00;99.90
76967;DHT22;65904;52.278;20.972;2023-08-08T07:16:11;24.00;99.90
76967;DHT22;65904;52.278;20.972;2023-08-08T07:18:57;24.10;99.90
76967;DHT22;65904;52.278;20.972;2023-08-08T07:21:43;24.20;99.90
76967;DHT22;65904;52.278;20.972;2023-08-08T07:24:29;24.20;99.90
76967;DHT22;65904;52.278;20.972;2023-08-08T07:27:16;24.20;99.90
76967;DHT22;65904;52.278;20.972;2023-08-08T07:30:01;24.20;99.90
76967;DHT22;65904;52.278;20.972;2023-08-08T07:32:51;24.20;99.90
76967;DHT22;65904;52.278;20.972;2023-08-08T07:35:37;24.20;99.90
76967;DHT22;65904;52.278;20.972;2023-08-08T07:38:23;24.30;99.90
76967;DHT22;65904;52.278;20.972;2023-08-08T07:41:09;24.30;99.90
76967;DHT22;65904;52.278;20.972;2023-08-08T07:43:55;24.30;99.90
76967;DHT22;65904;52.278;20.972;2023-08-08T07:46:41;24.30;99.90
76967;DHT22;65904;52.278;20.972;2023-08-08T07:49:29;24.30;99.90
76967;DHT22;65904;52.278;20.972;2023-08-08T07:52:14;24.30;99.90
76967;DHT22;65904;52.278;20.972;2023-08-08T07:55:00;24.30;99.90
76967;DHT22;65904;52.278;20.972;2023-08-08T07:57:46;24.40;99.90
76967;DHT22;65904;52.278;20.972;2023-08-08T08:00:33;24.40;99.90
76967;DHT22;65904;52.278;20.972;2023-08-08T08:03:19;24.40;99.90
76967;DHT22;65904;52.278;20.972;2023-08-08T08:06:06;24.40;99.90
76967;DHT22;65904;52.278;20.972;2023-08-08T08:08:52;24.40;99.90
76967;DHT22;65904;52.278;20.972;2023-08-08T08:11:38;24.40;99.90
76967;DHT22;65904;52.278;20.972;2023-08-08T08:14:24;24.50;99.90
76967;DHT22;65904;52.278;20.972;2023-08-08T08:17:10;24.50;99.90
76967;DHT22;65904;52.278;20.972;2023-08-08T08:19:56;24.50;99.90
76967;DHT22;65904;52.278;20.972;2023-08-08T08:22:44;24.40;99.90
76967;DHT22;65904;52.278;20.972;2023-08-08T08:25:29;24.40;99.90
76967;DHT22;65904;52.278;20.972;2023-08-08T08:28:17;24.40;99.90
76967;DHT22;65904;52.278;20.972;2023-08-08T08:31:03;24.40;99.90
76967;DHT22;65904;52.278;20.972;2023-08-08T08:33:50;24.40;99.90
76967;DHT22;65904;52.278;20.972;2023-08-08T08:36:35;24.40;99.90
76967;DHT22;65904;52.278;20.972;2023-08-08T08:39:23;24.40;99.90
76967;DHT22;65904;52.278;20.972;2023-08-08T08:42:09;24.50;99.90
76967;DHT22;65904;52.278;20.972;2023-08-08T08:44:58;24.50;99.90
76967;DHT22;65904;52.278;20.972;2023-08-08T08:47:44;24.50;99.90
76967;DHT22;65904;52.278;20.972;2023-08-08T08:50:32;24.50;99.90
76967;DHT22;65904;52.278;20.972;2023-08-08T08:53:18;24.50;99.90
76967;DHT22;65904;52.278;20.972;2023-08-08T08:56:06;24.50;99.90
76967;DHT22;65904;52.278;20.972;2023-08-08T08:58:53;24.50;99.90
76967;DHT22;65904;52.278;20.972;2023-08-08T09:01:39;24.50;99.90
76967;DHT22;65904;52.278;20.972;2023-08-08T09:04:24;24.50;99.90
76967;DHT22;65904;52.278;20.972;2023-08-08T09:07:11;24.50;99.90
76967;DHT22;65904;52.278;20.972;2023-08-08T09:09:58;24.50;99.90
76967;DHT22;65904;52.278;20.972;2023-08-08T09:12:46;24.50;99.90
76967;DHT22;65904;52.278;20.972;2023-08-08T09:15:33;24.50;99.90
76967;DHT22;65904;52.278;20.972;2023-08-08T09:18:22;24.50;99.90
76967;DHT22;65904;52.278;20.972;2023-08-08T09:21:08;24.50;99.90
76967;DHT22;65904;52.278;20.972;2023-08-08T09:23:54;24.50;99.90
76967;DHT22;65904;52.278;20.972;2023-08-08T09:26:40;24.50;99.90
76967;DHT22;65904;52.278;20.972;2023-08-08T09:29:28;24.60;99.90
76967;DHT22;65904;52.278;20.972;2023-08-08T09:32:13;24.60;99.90
76967;DHT22;65904;52.278;20.972;2023-08-08T09:35:02;24.60;99.90
76967;DHT22;65904;52.278;20.972;2023-08-08T09:37:54;24.60;99.90
76967;DHT22;65904;52.278;20.972;2023-08-08T09:40:40;24.60;99.90
76967;DHT22;65904;52.278;20.972;2023-08-08T09:43:27;24.60;99.90
76967;DHT22;65904;52.278;20.972;2023-08-08T09:46:14;24.60;99.90
76967;DHT22;65904;52.278;20.972;2023-08-08T09:49:01;24.50;99.90
76967;DHT22;65904;52.278;20.972;2023-08-08T09:51:47;24.60;99.90
76967;DHT22;65904;52.278;20.972;2023-08-08T09:54:33;24.60;99.90
76967;DHT22;65904;52.278;20.972;2023-08-08T09:57:20;24.50;99.90
76967;DHT22;65904;52.278;20.972;2023-08-08T10:00:06;24.50;99.90
76967;DHT22;65904;52.278;20.972;2023-08-08T10:02:58;24.50;99.90
76967;DHT22;65904;52.278;20.972;2023-08-08T10:05:45;24.60;99.90
76967;DHT22;65904;52.278;20.972;2023-08-08T10:08:31;24.50;99.90
76967;DHT22;65904;52.278;20.972;2023-08-08T10:11:17;24.50;99.90
76967;DHT22;65904;52.278;20.972;2023-08-08T10:14:04;24.50;99.90
76967;DHT22;65904;52.278;20.972;2023-08-08T10:16:50;24.50;99.90
76967;DHT22;65904;52.278;20.972;2023-08-08T10:19:38;24.50;99.70
76967;DHT22;65904;52.278;20.972;2023-08-08T10:22:24;24.50;99.40
76967;DHT22;65904;52.278;20.972;2023-08-08T10:25:17;24.70;98.90
76967;DHT22;65904;52.278;20.972;2023-08-08T10:28:03;24.70;99.10
76967;DHT22;65904;52.278;20.972;2023-08-08T10:30:52;24.80;98.90
76967;DHT22;65904;52.278;20.972;2023-08-08T10:33:41;24.70;98.60
76967;DHT22;65904;52.278;20.972;2023-08-08T10:39:25;24.70;98.40
76967;DHT22;65904;52.278;20.972;2023-08-08T10:42:11;24.60;98.20
76967;DHT22;65904;52.278;20.972;2023-08-08T10:45:03;24.70;98.10
76967;DHT22;65904;52.278;20.972;2023-08-08T10:47:49;24.70;98.30
76967;DHT22;65904;52.278;20.972;2023-08-08T10:50:38;24.70;98.20
76967;DHT22;65904;52.278;20.972;2023-08-08T10:53:25;24.80;98.80
76967;DHT22;65904;52.278;20.972;2023-08-08T10:56:13;24.80;97.90
76967;DHT22;65904;52.278;20.972;2023-08-08T10:58:59;24.80;97.70
76967;DHT22;65904;52.278;20.972;2023-08-08T11:01:45;24.80;97.70
76967;DHT22;65904;52.278;20.972;2023-08-08T11:04:32;24.80;98.30
76967;DHT22;65904;52.278;20.972;2023-08-08T11:07:19;24.90;98.30
76967;DHT22;65904;52.278;20.972;2023-08-08T11:10:06;24.90;97.80
76967;DHT22;65904;52.278;20.972;2023-08-08T11:12:56;25.00;97.70
76967;DHT22;65904;52.278;20.972;2023-08-08T11:15:42;25.00;97.40
76967;DHT22;65904;52.278;20.972;2023-08-08T11:18:28;25.10;97.20
76967;DHT22;65904;52.278;20.972;2023-08-08T11:21:15;25.20;96.90
76967;DHT22;65904;52.278;20.972;2023-08-08T11:24:01;25.20;96.80
76967;DHT22;65904;52.278;20.972;2023-08-08T11:26:47;25.20;96.70
76967;DHT22;65904;52.278;20.972;2023-08-08T11:29:35;25.30;96.70
76967;DHT22;65904;52.278;20.972;2023-08-08T11:32:21;25.30;96.60
76967;DHT22;65904;52.278;20.972;2023-08-08T11:35:07;25.20;96.50
76967;DHT22;65904;52.278;20.972;2023-08-08T11:37:54;25.10;96.10
76967;DHT22;65904;52.278;20.972;2023-08-08T11:40:40;25.10;96.30
76967;DHT22;65904;52.278;20.972;2023-08-08T11:43:26;25.10;96.30
76967;DHT22;65904;52.278;20.972;2023-08-08T11:46:14;25.10;96.00
76967;DHT22;65904;52.278;20.972;2023-08-08T11:49:04;25.20;95.60
76967;DHT22;65904;52.278;20.972;2023-08-08T11:51:50;25.20;95.80
76967;DHT22;65904;52.278;20.972;2023-08-08T11:54:40;25.30;95.70
76967;DHT22;65904;52.278;20.972;2023-08-08T11:57:26;25.30;95.60
76967;DHT22;65904;52.278;20.972;2023-08-08T12:00:13;25.20;96.00
76967;DHT22;65904;52.278;20.972;2023-08-08T12:03:01;25.20;96.00
76967;DHT22;65904;52.278;20.972;2023-08-08T12:05:49;25.20;95.50
76967;DHT22;65904;52.278;20.972;2023-08-08T12:08:34;25.20;95.60
76967;DHT22;65904;52.278;20.972;2023-08-08T12:11:21;25.20;95.50
76967;DHT22;65904;52.278;20.972;2023-08-08T12:14:07;25.30;95.60
76967;DHT22;65904;52.278;20.972;2023-08-08T12:16:54;25.40;95.50
76967;DHT22;65904;52.278;20.972;2023-08-08T12:19:45;25.50;95.80
76967;DHT22;65904;52.278;20.972;2023-08-08T12:22:33;25.40;95.70
76967;DHT22;65904;52.278;20.972;2023-08-08T12:25:19;25.20;94.60
76967;DHT22;65904;52.278;20.972;2023-08-08T12:28:05;25.20;94.20
76967;DHT22;65904;52.278;20.972;2023-08-08T12:30:51;25.10;94.00
76967;DHT22;65904;52.278;20.972;2023-08-08T12:33:37;25.10;94.60
76967;DHT22;65904;52.278;20.972;2023-08-08T12:36:25;25.00;94.50
76967;DHT22;65904;52.278;20.972;2023-08-08T12:39:11;25.20;94.60
76967;DHT22;65904;52.278;20.972;2023-08-08T12:41:58;25.30;94.30
76967;DHT22;65904;52.278;20.972;2023-08-08T12:44:44;25.60;94.30
76967;DHT22;65904;52.278;20.972;2023-08-08T12:47:31;25.90;94.30
76967;DHT22;65904;52.278;20.972;2023-08-08T12:50:21;25.80;94.60
76967;DHT22;65904;52.278;20.972;2023-08-08T12:53:09;25.90;94.60
76967;DHT22;65904;52.278;20.972;2023-08-08T12:55:55;25.90;94.50
76967;DHT22;65904;52.278;20.972;2023-08-08T12:58:41;26.00;94.70
76967;DHT22;65904;52.278;20.972;2023-08-08T13:01:27;26.10;94.60
76967;DHT22;65904;52.278;20.972;2023-08-08T13:04:13;26.30;94.40
76967;DHT22;65904;52.278;20.972;2023-08-08T13:06:59;26.00;94.50
76967;DHT22;65904;52.278;20.972;2023-08-08T13:09:47;25.90;94.60
76967;DHT22;65904;52.278;20.972;2023-08-08T13:12:33;25.90;94.50
76967;DHT22;65904;52.278;20.972;2023-08-08T13:15:19;25.80;94.60
76967;DHT22;65904;52.278;20.972;2023-08-08T13:18:05;25.90;94.40
76967;DHT22;65904;52.278;20.972;2023-08-08T13:20:51;25.80;94.40
76967;DHT22;65904;52.278;20.972;2023-08-08T13:23:38;25.70;94.50
76967;DHT22;65904;52.278;20.972;2023-08-08T13:26:25;25.60;94.50
76967;DHT22;65904;52.278;20.972;2023-08-08T13:29:11;25.50;94.70
76967;DHT22;65904;52.278;20.972;2023-08-08T13:31:57;25.50;94.60
76967;DHT22;65904;52.278;20.972;2023-08-08T13:34:43;25.50;94.60
76967;DHT22;65904;52.278;20.972;2023-08-08T13:37:29;25.40;94.40
76967;DHT22;65904;52.278;20.972;2023-08-08T13:40:16;25.30;94.00
76967;DHT22;65904;52.278;20.972;2023-08-08T13:43:03;25.30;93.90
76967;DHT22;65904;52.278;20.972;2023-08-08T13:45:50;25.20;94.00
76967;DHT22;65904;52.278;20.972;2023-08-08T13:48:36;25.20;94.00
76967;DHT22;65904;52.278;20.972;2023-08-08T13:51:22;25.20;93.70
76967;DHT22;65904;52.278;20.972;2023-08-08T13:54:08;25.20;93.10
76967;DHT22;65904;52.278;20.972;2023-08-08T13:56:54;25.20;93.50
76967;DHT22;65904;52.278;20.972;2023-08-08T13:59:42;25.20;93.20
76967;DHT22;65904;52.278;20.972;2023-08-08T14:02:28;25.30;93.50
76967;DHT22;65904;52.278;20.972;2023-08-08T14:05:14;25.20;90.50
76967;DHT22;65904;52.278;20.972;2023-08-08T14:08:00;24.40;89.10
76967;DHT22;65904;52.278;20.972;2023-08-08T14:10:46;24.20;90.30
76967;DHT22;65904;52.278;20.972;2023-08-08T14:13:33;24.40;89.80
76967;DHT22;65904;52.278;20.972;2023-08-08T14:16:20;24.60;88.20
76967;DHT22;65904;52.278;20.972;2023-08-08T14:19:07;24.70;88.20
76967;DHT22;65904;52.278;20.972;2023-08-08T14:21:53;24.70;88.70
76967;DHT22;65904;52.278;20.972;2023-08-08T14:24:39;24.60;88.20
76967;DHT22;65904;52.278;20.972;2023-08-08T14:27:25;24.50;88.70
76967;DHT22;65904;52.278;20.972;2023-08-08T14:30:12;24.50;89.10
76967;DHT22;65904;52.278;20.972;2023-08-08T14:32:59;24.40;88.80
76967;DHT22;65904;52.278;20.972;2023-08-08T14:35:45;24.00;87.90
76967;DHT22;65904;52.278;20.972;2023-08-08T14:38:34;23.90;90.90
76967;DHT22;65904;52.278;20.972;2023-08-08T14:41:20;24.50;91.60
76967;DHT22;65904;52.278;20.972;2023-08-08T14:44:06;24.80;91.90
76967;DHT22;65904;52.278;20.972;2023-08-08T14:46:53;25.10;92.30
76967;DHT22;65904;52.278;20.972;2023-08-08T14:49:40;25.30;92.50
76967;DHT22;65904;52.278;20.972;2023-08-08T14:52:26;25.40;92.80
76967;DHT22;65904;52.278;20.972;2023-08-08T14:55:12;25.30;93.10
76967;DHT22;65904;52.278;20.972;2023-08-08T14:57:58;25.20;93.10
76967;DHT22;65904;52.278;20.972;2023-08-08T15:00:44;25.30;93.30
76967;DHT22;65904;52.278;20.972;2023-08-08T15:03:30;25.40;93.40
76967;DHT22;65904;52.278;20.972;2023-08-08T15:06:17;25.40;93.50
76967;DHT22;65904;52.278;20.972;2023-08-08T15:09:04;25.40;93.50
76967;DHT22;65904;52.278;20.972;2023-08-08T15:11:50;25.40;93.50
76967;DHT22;65904;52.278;20.972;2023-08-08T15:14:36;25.50;93.80
76967;DHT22;65904;52.278;20.972;2023-08-08T15:17:22;25.50;91.80
76967;DHT22;65904;52.278;20.972;2023-08-08T15:20:08;24.80;85.60
76967;DHT22;65904;52.278;20.972;2023-08-08T15:22:56;24.70;90.90
76967;DHT22;65904;52.278;20.972;2023-08-08T15:25:42;24.90;91.20
76967;DHT22;65904;52.278;20.972;2023-08-08T15:28:28;25.10;91.40
76967;DHT22;65904;52.278;20.972;2023-08-08T15:31:16;25.20;91.70
76967;DHT22;65904;52.278;20.972;2023-08-08T15:34:02;25.20;91.70
76967;DHT22;65904;52.278;20.972;2023-08-08T15:36:48;25.30;91.60
76967;DHT22;65904;52.278;20.972;2023-08-08T15:39:36;25.40;92.10
76967;DHT22;65904;52.278;20.972;2023-08-08T15:42:22;25.20;91.60
76967;DHT22;65904;52.278;20.972;2023-08-08T15:45:08;25.20;92.30
76967;DHT22;65904;52.278;20.972;2023-08-08T15:47:55;25.20;92.30
76967;DHT22;65904;52.278;20.972;2023-08-08T15:50:41;25.20;93.00
76967;DHT22;65904;52.278;20.972;2023-08-08T15:53:27;25.20;92.90
76967;DHT22;65904;52.278;20.972;2023-08-08T15:56:16;25.30;93.30
76967;DHT22;65904;52.278;20.972;2023-08-08T15:59:02;25.30;93.70
76967;DHT22;65904;52.278;20.972;2023-08-08T16:01:48;25.40;94.10
76967;DHT22;65904;52.278;20.972;2023-08-08T16:04:34;25.40;94.00
76967;DHT22;65904;52.278;20.972;2023-08-08T16:07:20;25.50;94.30
76967;DHT22;65904;52.278;20.972;2023-08-08T16:10:07;25.40;94.20
76967;DHT22;65904;52.278;20.972;2023-08-08T16:12:54;25.30;88.90
76967;DHT22;65904;52.278;20.972;2023-08-08T16:15:40;24.60;89.70
76967;DHT22;65904;52.278;20.972;2023-08-08T16:18:27;24.60;92.00
76967;DHT22;65904;52.278;20.972;2023-08-08T16:21:13;24.70;92.50
76967;DHT22;65904;52.278;20.972;2023-08-08T16:23:59;24.80;93.10
76967;DHT22;65904;52.278;20.972;2023-08-08T16:26:45;24.90;93.10
76967;DHT22;65904;52.278;20.972;2023-08-08T16:29:32;24.90;93.20
76967;DHT22;65904;52.278;20.972;2023-08-08T16:32:18;24.90;93.20
76967;DHT22;65904;52.278;20.972;2023-08-08T16:35:04;24.90;93.10
76967;DHT22;65904;52.278;20.972;2023-08-08T16:37:51;24.90;93.20
76967;DHT22;65904;52.278;20.972;2023-08-08T16:40:36;24.90;93.20
76967;DHT22;65904;52.278;20.972;2023-08-08T16:43:22;24.90;93.10
76967;DHT22;65904;52.278;20.972;2023-08-08T16:46:10;24.90;92.60
76967;DHT22;65904;52.278;20.972;2023-08-08T16:48:56;24.10;87.60
76967;DHT22;65904;52.278;20.972;2023-08-08T16:51:42;24.10;93.40
76967;DHT22;65904;52.278;20.972;2023-08-08T16:54:28;24.40;93.30
76967;DHT22;65904;52.278;20.972;2023-08-08T16:57:14;24.60;93.20
76967;DHT22;65904;52.278;20.972;2023-08-08T17:00:01;24.70;93.10
76967;DHT22;65904;52.278;20.972;2023-08-08T17:02:48;24.80;93.10
76967;DHT22;65904;52.278;20.972;2023-08-08T17:05:34;24.80;93.10
76967;DHT22;65904;52.278;20.972;2023-08-08T17:08:20;24.80;93.00
76967;DHT22;65904;52.278;20.972;2023-08-08T17:11:06;24.80;93.10
76967;DHT22;65904;52.278;20.972;2023-08-08T17:13:52;24.90;93.20
76967;DHT22;65904;52.278;20.972;2023-08-08T17:16:38;24.90;93.30
76967;DHT22;65904;52.278;20.972;2023-08-08T17:19:26;24.90;93.60